»·PEaware :: GTH501 KSAN-KLAX

GTH501 :: KSAN-KLAX

FLIGHT INFORMATION

Flight Status: Arrived
Operator: Unknown
More flights by this operator :: More flights under this callsign
Pilot: Peter M. (9586)
Aircraft: DEHAVILLAND DASH 8 400
(DH8D)
More flights by this aircraft type
Origin: KSAN San Diego Intl-Lindbergh
United States
Destination: KLAX Los Angeles Intl
United States
More flights between these airports :: More routes between these airports
Route: +PEBLE6 SLI
File this flight plan on PilotEdge
Remarks:
Altitude:
(Current/Filed)
8,000ft
Speed:
(Current/Filed)
200kts
Departed: 04-Dec-17 09:14 PM
Arrived: 04-Dec-17 09:48 PM
Distance/Time
Traveled:
94nm/0:34
Distance/Time
To Go:
Arrived

Flight Plot

Page will automatically refresh every two minutes.


Map Options




Map Legend


Flown Route
Filed Route
Departure Airport
Arrival Airport
Navaid (VOR, NDB)
Fix

Horizontal Profiles

Position Reports

Time Latitude Longitude Heading Altitude Ground
Speed
04-Dec-17 20:32 32.732971 -117.199152 81 22ft 0kts
04-Dec-17 20:33 32.732971 -117.199152 81 22ft 0kts
04-Dec-17 20:34 32.732971 -117.199152 81 22ft 0kts
04-Dec-17 20:35 32.732971 -117.199152 81 22ft 0kts
04-Dec-17 20:36 32.732971 -117.199152 81 22ft 0kts
04-Dec-17 20:37 32.732971 -117.199152 81 22ft 0kts
04-Dec-17 20:38 32.732971 -117.199152 81 22ft 0kts
04-Dec-17 20:39 32.732971 -117.199152 81 22ft 0kts
04-Dec-17 20:40 32.732971 -117.199152 81 22ft 0kts
04-Dec-17 20:41 32.732971 -117.199152 81 22ft 0kts
04-Dec-17 20:42 32.732971 -117.199152 81 22ft 0kts
04-Dec-17 20:43 32.732971 -117.199152 81 22ft 0kts
04-Dec-17 20:44 32.732971 -117.199152 81 22ft 0kts
04-Dec-17 20:45 32.732971 -117.199152 81 22ft 0kts
04-Dec-17 20:46 32.732971 -117.199152 81 22ft 0kts
04-Dec-17 20:47 32.732971 -117.199152 81 22ft 0kts
04-Dec-17 20:48 32.732971 -117.199152 81 22ft 0kts
04-Dec-17 20:49 32.732971 -117.199152 81 22ft 0kts
04-Dec-17 20:50 32.732971 -117.199152 81 22ft 0kts
04-Dec-17 20:51 32.732971 -117.199152 81 22ft 0kts
04-Dec-17 20:52 32.732971 -117.199152 81 22ft 0kts
04-Dec-17 20:53 32.732971 -117.199152 81 22ft 0kts
04-Dec-17 20:54 32.732971 -117.199152 81 22ft 0kts
04-Dec-17 20:55 32.732971 -117.199152 81 22ft 0kts
04-Dec-17 20:56 32.732971 -117.199152 81 22ft 0kts
04-Dec-17 20:57 32.732971 -117.199152 81 22ft 0kts
04-Dec-17 20:58 32.732971 -117.199152 81 22ft 0kts
04-Dec-17 20:59 32.732971 -117.199152 81 22ft 0kts
04-Dec-17 21:00 32.732971 -117.199152 81 22ft 0kts
04-Dec-17 21:01 32.732971 -117.199152 81 22ft 0kts
04-Dec-17 21:05 32.732970 -117.199153 81 23ft 0kts
04-Dec-17 21:06 32.732971 -117.199153 81 22ft 0kts
04-Dec-17 21:07 32.732971 -117.199153 81 22ft 0kts
04-Dec-17 21:08 32.732971 -117.199153 81 22ft 0kts
04-Dec-17 21:09 32.732971 -117.199153 81 22ft 0kts
04-Dec-17 21:10 32.732971 -117.199153 81 22ft 0kts
04-Dec-17 21:11 32.732969 -117.199170 81 22ft 0kts
04-Dec-17 21:12 32.732960 -117.199243 82 22ft 0kts
04-Dec-17 21:13 32.733447 -117.200010 310 22ft 13kts
04-Dec-17 21:14 32.733940 -117.195207 105 22ft 34kts
04-Dec-17 21:15 32.730843 -117.182123 105 22ft 39kts
04-Dec-17 21:16 32.729667 -117.176412 69 22ft 0kts
04-Dec-17 21:17 32.729655 -117.176451 69 22ft 0kts
04-Dec-17 21:18 32.729973 -117.175937 348 22ft 8kts
04-Dec-17 21:19 32.732360 -117.184879 286 22ft 122kts
04-Dec-17 21:20 32.747521 -117.230596 316 1165ft 148kts
04-Dec-17 21:21 32.775565 -117.265493 305 1544ft 150kts
04-Dec-17 21:22 32.800321 -117.305244 301 2256ft 152kts
04-Dec-17 21:23 32.825750 -117.348261 308 4645ft 170kts
04-Dec-17 21:24 32.854558 -117.396590 309 7275ft 190kts
04-Dec-17 21:25 32.907905 -117.435332 330 7991ft 270kts
04-Dec-17 21:26 32.964022 -117.485941 304 7993ft 234kts
04-Dec-17 21:27 33.001780 -117.547486 302 7993ft 219kts
04-Dec-17 21:28 33.036285 -117.604988 302 7994ft 211kts
04-Dec-17 21:29 33.069266 -117.660107 301 7995ft 207kts
04-Dec-17 21:30 33.102633 -117.714679 303 7995ft 205kts
04-Dec-17 21:31 33.136910 -117.766986 304 7995ft 203kts
04-Dec-17 21:32 33.171404 -117.819810 305 7993ft 203kts
04-Dec-17 21:33 33.222896 -117.849958 335 7996ft 210kts
04-Dec-17 21:34 33.278883 -117.871131 337 7996ft 210kts
04-Dec-17 21:35 33.335686 -117.891661 337 7996ft 210kts
04-Dec-17 21:36 33.390366 -117.911469 337 7996ft 209kts
04-Dec-17 21:37 33.445213 -117.931385 337 7996ft 209kts
04-Dec-17 21:38 33.499956 -117.951291 337 7996ft 209kts
04-Dec-17 21:39 33.553990 -117.970927 337 7948ft 202kts
04-Dec-17 21:40 33.606411 -117.990076 337 7079ft 203kts
04-Dec-17 21:41 33.661027 -118.010226 338 6054ft 213kts
04-Dec-17 21:42 33.717242 -118.031342 340 5155ft 213kts
04-Dec-17 21:43 33.773246 -118.051617 343 4283ft 212kts
04-Dec-17 21:44 33.826150 -118.071958 333 3995ft 186kts
04-Dec-17 21:45 33.869852 -118.098592 332 3550ft 178kts
04-Dec-17 21:46 33.905840 -118.120546 332 2945ft 183kts
04-Dec-17 21:47 33.946018 -118.147191 306 2976ft 155kts
04-Dec-17 21:48 33.957545 -118.198626 270 3006ft 172kts
04-Dec-17 21:49 33.951284 -118.256658 251 2841ft 167kts
04-Dec-17 21:50 33.943041 -118.308372 270 1566ft 142kts
04-Dec-17 21:51 33.940143 -118.352449 260 744ft 135kts
04-Dec-17 21:52 33.936252 -118.392950 261 134ft 90kts
04-Dec-17 21:53 33.934094 -118.403373 236 133ft 22kts

Navigation Log

Ident Type
1. KSAN Airport
2. MELDY Fix
3. PEBLE Fix
4. SLI Navaid
5. KLAX Airport